Aviation Digital Data Service (ADDS)

Output produced by METARs form (0249 UTC 21 August 2017)
found at http://aviationweather.gov/adds/metars/
 
KOAJ 202321Z 2100/2124 VRB04KT P6SM FEW250 
     FM210700 00000KT 3SM BR SCT250 
     FM210800 00000KT 2SM BR SCT005 
     FM211200 00000KT 5SM BR SCT250 
     FM211300 13005KT P6SM SCT050 AMD LTD TO CLD VIS AND WIND